createdAt,value
2022-10-28T00:00:47.043Z,5.75
2022-10-28T00:03:13.658Z,5.95
2022-10-28T00:05:40.239Z,5.72
2022-10-28T00:08:06.848Z,5.05
2022-10-28T00:10:33.622Z,5.53
2022-10-28T00:13:00.321Z,6.03
2022-10-28T00:15:26.976Z,5.70
2022-10-28T00:17:53.818Z,5.47
2022-10-28T00:20:20.602Z,5.97
2022-10-28T00:22:47.167Z,6.10
2022-10-28T00:25:13.766Z,5.90
2022-10-28T00:27:40.348Z,5.13
2022-10-28T00:30:07.568Z,5.50
2022-10-28T00:32:34.117Z,5.47
2022-10-28T00:35:00.694Z,5.60
2022-10-28T00:37:27.389Z,5.82
2022-10-28T00:39:53.941Z,6.00
2022-10-28T00:42:21.362Z,6.13
2022-10-28T00:44:56.902Z,5.93
2022-10-28T00:47:47.622Z,5.60
2022-10-28T00:50:46.333Z,5.65
2022-10-28T00:53:19.220Z,6.00
2022-10-28T00:55:45.826Z,5.22
2022-10-28T00:58:12.431Z,6.60
2022-10-28T01:03:20.436Z,6.75
2022-10-28T01:05:47.730Z,6.32
2022-10-28T01:08:14.290Z,5.88
2022-10-28T01:11:18.302Z,6.50
2022-10-28T01:13:51.098Z,6.05
2022-10-28T01:16:21.822Z,5.70
2022-10-28T01:19:07.086Z,5.97
2022-10-28T01:22:04.065Z,5.75
2022-10-28T01:25:24.489Z,5.63
2022-10-28T01:28:00.026Z,5.95
2022-10-28T01:30:34.056Z,5.90
2022-10-28T01:33:15.459Z,5.90
2022-10-28T01:35:57.550Z,5.20
2022-10-28T01:38:36.218Z,5.82
2022-10-28T01:41:16.973Z,6.07
2022-10-28T01:43:57.618Z,6.03
2022-10-28T01:46:28.206Z,6.80
2022-10-28T01:49:07.364Z,5.22
2022-10-28T01:51:43.649Z,5.75
2022-10-28T01:54:10.258Z,6.03
2022-10-28T01:56:38.384Z,5.70
2022-10-28T01:59:07.818Z,5.68
2022-10-28T02:01:34.644Z,5.15
2022-10-28T02:04:01.373Z,6.57
2022-10-28T02:06:29.533Z,6.18
2022-10-28T02:09:14.960Z,5.30
2022-10-28T02:11:41.504Z,5.85
2022-10-28T02:14:46.961Z,5.93
2022-10-28T02:17:39.715Z,6.13
2022-10-28T02:20:25.213Z,5.50
2022-10-28T02:23:28.506Z,5.72
2022-10-28T02:26:02.375Z,5.30
2022-10-28T02:28:37.518Z,5.65
2022-10-28T02:31:23.173Z,5.05
2022-10-28T02:33:51.693Z,5.22
2022-10-28T02:36:18.279Z,5.47
2022-10-28T02:38:54.939Z,6.20
2022-10-28T02:41:41.870Z,6.00
2022-10-28T02:44:12.951Z,5.85
2022-10-28T02:46:40.372Z,5.50
2022-10-28T02:49:08.622Z,5.45
2022-10-28T02:51:41.158Z,5.57
2022-10-28T02:54:21.524Z,5.53
2022-10-28T02:57:06.992Z,5.50
2022-10-28T02:59:33.721Z,5.50
2022-10-28T03:02:00.448Z,5.28
2022-10-28T03:04:27.180Z,5.78
2022-10-28T03:06:53.740Z,5.18
2022-10-28T03:09:20.341Z,5.28
2022-10-28T03:11:46.932Z,5.30
2022-10-28T03:14:15.364Z,5.47
2022-10-28T03:16:42.294Z,5.25
2022-10-28T03:21:40.396Z,5.50
2022-10-28T03:24:07.185Z,4.95
2022-10-28T03:26:33.806Z,4.97
2022-10-28T03:29:00.393Z,5.47
2022-10-28T03:31:26.995Z,5.53
2022-10-28T03:33:53.561Z,5.70
2022-10-28T03:36:20.156Z,6.03
2022-10-28T03:38:46.713Z,5.90
2022-10-28T03:41:13.276Z,4.60
2022-10-28T03:43:39.934Z,6.10
2022-10-28T03:46:06.523Z,5.32
2022-10-28T03:48:33.126Z,5.38
2022-10-28T03:50:59.694Z,5.22
2022-10-28T03:53:29.023Z,5.40
2022-10-28T03:56:01.071Z,5.07
2022-10-28T03:58:27.677Z,5.07
2022-10-28T04:00:54.514Z,5.25
2022-10-28T04:03:21.667Z,5.13
2022-10-28T04:05:48.319Z,4.88
2022-10-28T04:08:15.799Z,5.93
2022-10-28T04:10:47.142Z,4.97
2022-10-28T04:13:14.415Z,5.22
2022-10-28T04:15:42.192Z,5.30
2022-10-28T04:18:11.218Z,5.70
2022-10-28T04:20:37.882Z,5.38
2022-10-28T04:23:04.753Z,5.20
2022-10-28T04:25:31.443Z,4.82
2022-10-28T04:27:58.141Z,5.13
2022-10-28T04:30:24.750Z,5.65
2022-10-28T04:32:51.361Z,5.15
2022-10-28T04:35:18.078Z,5.20
2022-10-28T04:37:44.669Z,5.18
2022-10-28T04:40:11.647Z,5.35
2022-10-28T04:42:38.246Z,6.10
2022-10-28T04:45:05.256Z,5.40
2022-10-28T04:47:31.847Z,6.07
2022-10-28T04:49:58.428Z,5.63
2022-10-28T04:52:25.054Z,5.57
2022-10-28T04:54:51.872Z,5.40
2022-10-28T04:57:18.483Z,5.75
2022-10-28T04:59:45.098Z,5.38
2022-10-28T05:02:11.820Z,5.32
2022-10-28T05:04:38.505Z,5.78
2022-10-28T05:07:05.089Z,6.03
2022-10-28T05:09:31.689Z,5.93
2022-10-28T05:11:58.258Z,6.38
2022-10-28T05:14:24.913Z,5.25
2022-10-28T05:16:51.508Z,6.40
2022-10-28T05:19:18.255Z,6.45
2022-10-28T05:21:44.812Z,5.82
2022-10-28T05:24:11.419Z,6.30
2022-10-28T05:26:37.996Z,5.97
2022-10-28T05:29:04.664Z,6.75
2022-10-28T05:31:31.241Z,6.05
2022-10-28T05:33:57.831Z,5.95
2022-10-28T05:36:24.438Z,6.40
2022-10-28T05:38:51.034Z,5.47
2022-10-28T05:41:17.729Z,6.22
2022-10-28T05:43:44.342Z,6.05
2022-10-28T05:46:11.045Z,6.10
2022-10-28T05:48:37.697Z,5.97
2022-10-28T05:51:04.313Z,5.85
2022-10-28T05:53:30.922Z,6.22
2022-10-28T05:55:57.537Z,6.15
2022-10-28T05:58:24.133Z,5.43
2022-10-28T06:00:50.731Z,6.18
2022-10-28T06:03:17.504Z,5.80
2022-10-28T06:05:44.562Z,5.88
2022-10-28T06:08:14.111Z,6.82
2022-10-28T06:13:07.502Z,6.05
2022-10-28T06:15:36.903Z,5.90
2022-10-28T06:18:03.613Z,6.78
2022-10-28T06:20:30.242Z,6.30
2022-10-28T06:22:56.824Z,6.72
2022-10-28T06:25:23.940Z,6.70
2022-10-28T06:27:54.631Z,6.47
2022-10-28T06:30:22.124Z,6.47
2022-10-28T06:32:48.827Z,6.28
2022-10-28T06:35:15.505Z,6.10
2022-10-28T06:37:42.164Z,6.05
2022-10-28T06:40:09.154Z,6.05
2022-10-28T06:42:37.254Z,6.10
2022-10-28T06:45:04.473Z,6.00
2022-10-28T06:47:32.594Z,5.50
2022-10-28T06:49:59.237Z,6.65
2022-10-28T06:52:25.841Z,6.22
2022-10-28T06:54:52.514Z,6.70
2022-10-28T06:57:19.233Z,6.43
2022-10-28T06:59:45.915Z,6.75
2022-10-28T07:02:12.692Z,6.18
2022-10-28T07:04:39.402Z,5.95
2022-10-28T07:07:06.089Z,5.18
2022-10-28T07:09:33.055Z,5.82
2022-10-28T07:12:03.840Z,6.70
2022-10-28T07:14:31.860Z,6.63
2022-10-28T07:16:58.473Z,5.30
2022-10-28T07:19:25.135Z,5.57
2022-10-28T07:21:51.876Z,5.07
2022-10-28T07:24:18.561Z,5.38
2022-10-28T07:26:47.229Z,5.30
2022-10-28T07:29:13.931Z,5.72
2022-10-28T07:31:40.509Z,6.00
2022-10-28T07:34:08.286Z,5.85
2022-10-28T07:36:36.196Z,5.47
2022-10-28T07:39:05.206Z,5.80
2022-10-28T07:41:31.909Z,5.35
2022-10-28T07:43:58.820Z,5.50
2022-10-28T07:46:25.622Z,5.43
2022-10-28T07:48:52.855Z,5.35
2022-10-28T07:51:22.314Z,5.10
2022-10-28T07:53:51.772Z,5.03
2022-10-28T07:56:18.519Z,5.32
2022-10-28T07:58:45.261Z,5.00
2022-10-28T08:01:13.376Z,5.07
2022-10-28T08:03:40.145Z,4.68
2022-10-28T08:06:10.282Z,5.18
2022-10-28T08:08:37.214Z,4.25
2022-10-28T08:11:16.528Z,5.18
2022-10-28T08:13:43.215Z,5.90
2022-10-28T08:16:09.811Z,5.03
2022-10-28T08:18:36.851Z,4.88
2022-10-28T08:21:03.702Z,4.55
2022-10-28T08:23:30.564Z,5.07
2022-10-28T08:25:57.218Z,4.90
2022-10-28T08:28:23.855Z,4.70
2022-10-28T08:31:04.157Z,4.82
2022-10-28T08:33:38.510Z,4.50
2022-10-28T08:36:06.298Z,5.25
2022-10-28T08:38:32.993Z,4.80
2022-10-28T08:41:12.766Z,5.03
2022-10-28T08:43:57.700Z,4.70
2022-10-28T08:46:52.608Z,5.35
2022-10-28T08:49:21.418Z,4.25
2022-10-28T08:52:00.974Z,4.50
2022-10-28T08:54:36.181Z,4.55
2022-10-28T08:57:03.154Z,4.93
2022-10-28T08:59:32.910Z,5.35
2022-10-28T09:02:11.654Z,4.88
2022-10-28T09:04:39.761Z,4.68
2022-10-28T09:07:09.487Z,5.07
2022-10-28T09:09:36.135Z,5.18
2022-10-28T09:12:21.497Z,4.88
2022-10-28T09:15:10.652Z,4.07
2022-10-28T09:17:54.230Z,3.25
2022-10-28T09:20:23.270Z,3.75
2022-10-28T09:23:00.336Z,3.40
2022-10-28T09:25:35.184Z,3.13
2022-10-28T09:28:08.582Z,3.65
2022-10-28T09:30:44.223Z,3.45
2022-10-28T09:33:35.005Z,3.38
2022-10-28T09:36:03.096Z,2.95
2022-10-28T09:38:38.664Z,3.75
2022-10-28T09:41:15.323Z,3.40
2022-10-28T09:44:05.466Z,3.85
2022-10-28T09:46:34.720Z,3.80
2022-10-28T09:49:05.360Z,3.50
2022-10-28T09:51:41.312Z,3.58
2022-10-28T09:54:07.913Z,3.38
2022-10-28T09:56:34.565Z,3.25
2022-10-28T09:59:01.472Z,3.60
2022-10-28T10:01:29.620Z,3.42
2022-10-28T10:03:56.264Z,3.63
2022-10-28T10:06:34.934Z,3.58
2022-10-28T10:09:01.534Z,3.67
2022-10-28T10:11:41.032Z,3.10
2022-10-28T10:14:10.623Z,3.50
2022-10-28T10:16:54.345Z,3.88
2022-10-28T10:19:21.028Z,3.17
2022-10-28T10:21:52.202Z,3.72
2022-10-28T10:24:26.253Z,3.20
2022-10-28T10:26:52.960Z,3.28
2022-10-28T10:29:23.149Z,3.15
2022-10-28T10:31:50.153Z,3.13
2022-10-28T10:34:25.718Z,3.25
2022-10-28T10:36:54.187Z,2.60
2022-10-28T10:39:23.155Z,2.70
2022-10-28T10:41:49.917Z,3.00
2022-10-28T10:44:31.368Z,2.92
2022-10-28T10:47:05.870Z,3.05
2022-10-28T10:49:33.951Z,3.03
2022-10-28T10:52:01.928Z,3.10
2022-10-28T10:54:32.979Z,2.88
2022-10-28T10:57:15.972Z,2.78
2022-10-28T10:59:45.399Z,3.00
2022-10-28T11:02:38.265Z,3.25
2022-10-28T11:05:09.545Z,2.78
2022-10-28T11:07:37.016Z,3.10
2022-10-28T11:10:03.882Z,3.15
2022-10-28T11:12:34.409Z,2.72
2022-10-28T11:15:25.678Z,3.00
2022-10-28T11:17:57.552Z,2.67
2022-10-28T11:20:48.405Z,2.80
2022-10-28T11:23:48.494Z,3.17
2022-10-28T11:26:15.471Z,2.97
2022-10-28T11:28:50.922Z,3.13
2022-10-28T11:31:29.274Z,2.88
2022-10-28T11:34:17.387Z,3.47
2022-10-28T11:36:46.759Z,2.90
2022-10-28T11:41:57.157Z,2.70
2022-10-28T11:44:23.693Z,2.97
2022-10-28T11:47:31.973Z,3.13
2022-10-28T11:50:10.550Z,2.83
2022-10-28T11:52:55.804Z,3.13
2022-10-28T11:55:35.018Z,2.78
2022-10-28T11:58:27.813Z,3.13
2022-10-28T12:01:20.982Z,2.90
2022-10-28T12:04:04.595Z,3.08
2022-10-28T12:06:52.756Z,2.58
2022-10-28T12:09:56.791Z,2.67
2022-10-28T12:12:53.556Z,2.80
2022-10-28T12:15:39.297Z,2.60
2022-10-28T12:18:18.904Z,2.60
2022-10-28T12:21:07.240Z,3.25
2022-10-28T12:23:35.056Z,2.95
2022-10-28T12:26:01.665Z,3.10
2022-10-28T12:28:33.569Z,3.03
2022-10-28T12:31:00.160Z,3.22
2022-10-28T12:33:41.921Z,3.40
2022-10-28T12:36:08.457Z,2.40
2022-10-28T12:38:57.077Z,2.83
2022-10-28T12:44:21.046Z,3.08
2022-10-28T12:47:06.432Z,3.10
2022-10-28T12:49:57.634Z,2.83
2022-10-28T12:53:02.570Z,2.75
2022-10-28T12:55:41.970Z,2.58
2022-10-28T12:58:16.299Z,2.40
2022-10-28T13:00:55.089Z,2.97
2022-10-28T13:03:21.694Z,2.92
2022-10-28T13:06:09.358Z,2.88
2022-10-28T13:09:06.950Z,3.10
2022-10-28T13:11:51.787Z,2.55
2022-10-28T13:14:22.298Z,2.38
2022-10-28T13:17:15.859Z,2.83
2022-10-28T13:20:03.080Z,3.50
2022-10-28T13:22:41.854Z,2.97
2022-10-28T13:25:20.449Z,2.65
2022-10-28T13:30:16.914Z,2.70
2022-10-28T13:32:43.566Z,3.53
2022-10-28T13:35:28.175Z,2.90
2022-10-28T13:37:55.015Z,2.80
2022-10-28T13:40:22.907Z,2.63
2022-10-28T13:42:49.521Z,2.90
2022-10-28T13:45:54.765Z,2.60
2022-10-28T13:48:30.354Z,2.60
2022-10-28T13:51:09.124Z,2.88
2022-10-28T13:53:45.428Z,2.92
2022-10-28T13:56:34.092Z,3.38
2022-10-28T13:59:03.966Z,2.58
2022-10-28T14:02:01.669Z,3.45
2022-10-28T14:04:36.268Z,3.10
2022-10-28T14:07:26.456Z,3.03
2022-10-28T14:09:54.816Z,3.17
2022-10-28T14:12:31.178Z,3.47
2022-10-28T14:14:59.212Z,4.55
2022-10-28T14:17:34.218Z,3.25
2022-10-28T14:20:00.831Z,2.95
2022-10-28T14:22:35.493Z,3.28
2022-10-28T14:25:02.713Z,3.38
2022-10-28T14:27:30.999Z,3.20
2022-10-28T14:29:57.640Z,3.65
2022-10-28T14:32:39.012Z,3.53
2022-10-28T14:35:11.426Z,3.10
2022-10-28T14:37:56.601Z,2.97
2022-10-28T14:40:44.071Z,2.78
2022-10-28T14:43:13.535Z,2.80
2022-10-28T14:46:01.756Z,3.17
2022-10-28T14:48:49.634Z,2.75
2022-10-28T14:54:03.176Z,3.10
2022-10-28T14:56:30.440Z,3.92
2022-10-28T14:58:59.318Z,3.05
2022-10-28T15:01:27.186Z,2.70
2022-10-28T15:03:58.990Z,2.97
2022-10-28T15:06:33.005Z,3.95
2022-10-28T15:09:16.463Z,3.03
2022-10-28T15:11:51.445Z,3.35
2022-10-28T15:14:35.266Z,3.20
2022-10-28T15:17:14.026Z,3.60
2022-10-28T15:19:40.968Z,3.10
2022-10-28T15:22:21.772Z,4.55
2022-10-28T15:24:58.499Z,3.17
2022-10-28T15:27:29.084Z,3.60
2022-10-28T15:29:57.024Z,3.25
2022-10-28T15:32:27.731Z,3.72
2022-10-28T15:34:54.418Z,3.42
2022-10-28T15:37:31.038Z,3.35
2022-10-28T15:40:20.544Z,3.50
2022-10-28T15:42:58.719Z,3.22
2022-10-28T15:45:27.249Z,3.47
2022-10-28T15:47:54.329Z,5.47
2022-10-28T15:50:27.331Z,3.38
2022-10-28T15:53:06.340Z,3.90
2022-10-28T15:58:20.292Z,3.45
2022-10-28T16:00:55.164Z,5.80
2022-10-28T16:03:39.686Z,3.60
2022-10-28T16:06:06.799Z,3.33
2022-10-28T16:08:33.868Z,4.00
2022-10-28T16:11:04.480Z,3.45
2022-10-28T16:13:40.961Z,2.97
2022-10-28T16:16:08.346Z,4.50
2022-10-28T16:18:46.237Z,3.67
2022-10-28T16:21:23.103Z,3.25
2022-10-28T16:23:53.917Z,3.47
2022-10-28T16:26:20.502Z,3.78
2022-10-28T16:28:47.077Z,3.42
2022-10-28T16:31:15.485Z,3.70
2022-10-28T16:33:42.211Z,3.88
2022-10-28T16:36:08.913Z,4.25
2022-10-28T16:38:35.515Z,3.92
2022-10-28T16:41:02.395Z,3.97
2022-10-28T16:43:29.495Z,3.13
2022-10-28T16:45:57.085Z,3.40
2022-10-28T16:48:25.276Z,3.55
2022-10-28T16:51:00.592Z,3.45
2022-10-28T16:53:27.376Z,4.05
2022-10-28T16:55:54.209Z,4.70
2022-10-28T16:58:23.277Z,4.00
2022-10-28T17:00:53.219Z,4.50
2022-10-28T17:03:19.857Z,4.05
2022-10-28T17:05:46.417Z,4.60
2022-10-28T17:08:13.067Z,4.82
2022-10-28T17:10:40.411Z,4.25
2022-10-28T17:13:13.798Z,4.63
2022-10-28T17:15:40.771Z,4.20
2022-10-28T17:18:07.583Z,3.83
2022-10-28T17:20:34.406Z,4.43
2022-10-28T17:23:01.694Z,3.95
2022-10-28T17:25:28.645Z,4.53
2022-10-28T17:27:55.919Z,4.63
2022-10-28T17:30:22.898Z,4.15
2022-10-28T17:32:50.589Z,4.40
2022-10-28T17:35:17.380Z,3.97
2022-10-28T17:37:43.988Z,4.78
2022-10-28T17:40:10.758Z,4.25
2022-10-28T17:42:37.726Z,4.18
2022-10-28T17:45:05.914Z,3.47
2022-10-28T17:47:35.800Z,3.83
2022-10-28T17:50:02.613Z,4.28
2022-10-28T17:52:30.946Z,3.42
2022-10-28T17:55:00.630Z,3.67
2022-10-28T17:57:27.221Z,3.72
2022-10-28T17:59:53.902Z,4.60
2022-10-28T18:02:20.682Z,3.60
2022-10-28T18:04:47.394Z,3.83
2022-10-28T18:07:14.048Z,3.38
2022-10-28T18:09:41.134Z,4.18
2022-10-28T18:12:09.986Z,4.40
2022-10-28T18:14:36.699Z,4.65
2022-10-28T18:17:03.296Z,4.20
2022-10-28T18:19:30.038Z,4.10
2022-10-28T18:21:56.772Z,3.80
2022-10-28T18:24:26.216Z,4.25
2022-10-28T18:29:24.027Z,4.93
2022-10-28T18:31:51.046Z,4.32
2022-10-28T18:34:18.615Z,5.38
2022-10-28T18:36:47.884Z,6.00
2022-10-28T18:39:15.090Z,6.28
2022-10-28T18:41:43.245Z,5.13
2022-10-28T18:44:14.463Z,5.28
2022-10-28T18:46:42.521Z,4.82
2022-10-28T18:49:10.292Z,4.80
2022-10-28T18:51:39.558Z,5.22
2022-10-28T18:54:06.525Z,4.45
2022-10-28T18:56:35.040Z,5.70
2022-10-28T18:59:03.040Z,4.60
2022-10-28T19:01:33.246Z,5.03
2022-10-28T19:04:02.302Z,4.65
2022-10-28T19:06:30.610Z,5.40
2022-10-28T19:09:11.385Z,4.47
2022-10-28T19:11:40.360Z,5.18
2022-10-28T19:14:09.765Z,5.25
2022-10-28T19:16:36.638Z,5.22
2022-10-28T19:19:07.435Z,5.47
2022-10-28T19:21:36.958Z,5.65
2022-10-28T19:26:32.906Z,5.30
2022-10-28T19:29:00.885Z,4.80
2022-10-28T19:31:29.943Z,5.07
2022-10-28T19:33:56.756Z,4.95
2022-10-28T19:36:27.464Z,4.80
2022-10-28T19:38:54.742Z,4.60
2022-10-28T19:41:24.344Z,4.50
2022-10-28T19:44:10.607Z,5.00
2022-10-28T19:46:43.506Z,5.30
2022-10-28T19:49:10.624Z,5.05
2022-10-28T19:51:39.661Z,4.85
2022-10-28T19:54:09.534Z,5.07
2022-10-28T19:56:37.698Z,5.82
2022-10-28T19:59:06.231Z,5.63
2022-10-28T20:01:35.604Z,5.80
2022-10-28T20:04:02.827Z,5.53
2022-10-28T20:06:37.204Z,6.90
2022-10-28T20:09:10.123Z,5.65
2022-10-28T20:11:38.208Z,5.65
2022-10-28T20:14:09.092Z,6.00
2022-10-28T20:16:36.598Z,5.30
2022-10-28T20:19:06.066Z,5.45
2022-10-28T20:24:00.532Z,5.10
2022-10-28T20:26:37.394Z,5.97
2022-10-28T20:29:06.441Z,6.28
2022-10-28T20:31:53.353Z,6.38
2022-10-28T20:34:23.479Z,5.50
2022-10-28T20:36:50.265Z,6.22
2022-10-28T20:39:21.639Z,5.40
2022-10-28T20:41:48.733Z,6.35
2022-10-28T20:44:17.818Z,5.85
2022-10-28T20:46:48.359Z,5.38
2022-10-28T20:49:15.323Z,4.15
2022-10-28T20:51:45.142Z,6.10
2022-10-28T20:54:11.824Z,5.63
2022-10-28T20:56:39.010Z,5.72
2022-10-28T20:59:05.814Z,5.10
2022-10-28T21:01:34.631Z,5.30
2022-10-28T21:04:03.770Z,5.05
2022-10-28T21:06:30.725Z,4.93
2022-10-28T21:08:57.585Z,5.43
2022-10-28T21:11:24.455Z,5.75
2022-10-28T21:13:52.044Z,4.90
2022-10-28T21:16:19.041Z,4.90
2022-10-28T21:18:45.944Z,4.78
2022-10-28T21:21:12.933Z,4.28
2022-10-28T21:23:39.800Z,4.78
2022-10-28T21:26:06.807Z,4.82
2022-10-28T21:28:34.148Z,5.95
2022-10-28T21:31:07.503Z,5.07
2022-10-28T21:33:35.246Z,5.65
2022-10-28T21:36:09.927Z,5.20
2022-10-28T21:38:37.648Z,4.78
2022-10-28T21:41:06.673Z,4.53
2022-10-28T21:43:35.035Z,5.07
2022-10-28T21:46:01.906Z,5.32
2022-10-28T21:48:29.015Z,4.93
2022-10-28T21:50:58.320Z,5.38
2022-10-28T21:53:25.492Z,5.55
2022-10-28T21:56:03.924Z,5.22
2022-10-28T21:58:31.055Z,5.18
2022-10-28T22:01:14.915Z,4.60
2022-10-28T22:03:44.799Z,5.18
2022-10-28T22:06:11.850Z,5.25
2022-10-28T22:08:38.716Z,5.05
2022-10-28T22:11:12.816Z,4.63
2022-10-28T22:13:39.841Z,4.70
2022-10-28T22:16:08.239Z,4.65
2022-10-28T22:18:35.835Z,5.03
2022-10-28T22:21:13.493Z,4.68
2022-10-28T22:23:40.422Z,4.90
2022-10-28T22:26:09.136Z,4.30
2022-10-28T22:28:36.085Z,4.65
2022-10-28T22:31:06.790Z,5.03
2022-10-28T22:33:33.807Z,5.85
2022-10-28T22:36:01.937Z,4.50
2022-10-28T22:38:30.918Z,4.30
2022-10-28T22:41:19.762Z,4.15
2022-10-28T22:43:49.108Z,4.65
2022-10-28T22:46:16.325Z,5.18
2022-10-28T22:48:43.249Z,5.35
2022-10-28T22:51:20.320Z,4.90
2022-10-28T22:53:47.202Z,4.82
2022-10-28T22:56:18.761Z,4.80
2022-10-28T22:58:45.534Z,4.47
2022-10-28T23:01:16.933Z,5.60
2022-10-28T23:03:44.882Z,5.07
2022-10-28T23:06:12.498Z,5.07
2022-10-28T23:08:48.781Z,4.78
2022-10-28T23:11:16.663Z,4.40
2022-10-28T23:13:43.460Z,4.47
2022-10-28T23:16:11.631Z,5.00
2022-10-28T23:18:41.629Z,4.38
2022-10-28T23:21:11.565Z,4.57
2022-10-28T23:23:38.507Z,4.57
2022-10-28T23:26:05.379Z,4.75
2022-10-28T23:28:32.170Z,4.85
2022-10-28T23:31:03.251Z,5.10
2022-10-28T23:33:33.913Z,4.78
2022-10-28T23:36:01.463Z,4.47
2022-10-28T23:38:28.118Z,4.15
2022-10-28T23:41:05.714Z,4.15
2022-10-28T23:43:32.746Z,4.43
2022-10-28T23:45:59.687Z,4.80
2022-10-28T23:48:26.968Z,4.75
2022-10-28T23:50:53.727Z,4.25
2022-10-28T23:53:20.613Z,4.18
2022-10-28T23:55:48.205Z,4.43
2022-10-28T23:58:16.967Z,4.15
